Time;durP1;ratioP1;P1;durP2;ratioP2;P2;SDS_P1;SDS_P2;PMS_P1;PMS_P2;Temp;Humidity;BMP_temperature;BMP_pressure;BME280_temperature;BME280_humidity;BME280_pressure;Samples;Min_cycle;Max_cycle;Signal;HPM_P1;HPM_P2
2022/11/01 00:01:05;;;;;;;16.02;9.32;;;14.10;99.90;;;;;;5090752;28;20052;-63
2022/11/01 00:03:31;;;;;;;17.02;9.80;;;14.10;99.90;;;;;;5089422;28;20036;-62
2022/11/01 00:05:56;;;;;;;15.80;9.27;;;14.20;99.90;;;;;;5090893;28;20078;-62
2022/11/01 00:08:22;;;;;;;17.83;9.45;;;14.20;99.90;;;;;;5090849;28;20036;-62
2022/11/01 00:10:48;;;;;;;16.08;9.60;;;14.20;99.90;;;;;;5089776;28;20036;-62
2022/11/01 00:13:13;;;;;;;14.45;9.98;;;14.30;99.90;;;;;;5090108;28;20032;-62
2022/11/01 00:15:39;;;;;;;16.30;9.07;;;14.30;99.90;;;;;;5090661;28;20128;-62
2022/11/01 00:18:04;;;;;;;14.63;8.60;;;14.30;99.90;;;;;;5089819;28;20101;-63
2022/11/01 00:20:30;;;;;;;14.48;8.85;;;14.30;99.90;;;;;;5090368;28;20040;-62
2022/11/01 00:22:55;;;;;;;12.57;8.13;;;14.30;99.90;;;;;;5090405;28;20040;-63
2022/11/01 00:25:21;;;;;;;12.25;8.27;;;14.40;99.90;;;;;;5090371;28;20056;-62
2022/11/01 00:27:47;;;;;;;16.25;8.48;;;14.40;99.90;;;;;;5090713;28;20040;-63
2022/11/01 00:30:12;;;;;;;15.07;8.25;;;14.30;99.90;;;;;;5090486;28;20435;-62
2022/11/01 00:32:38;;;;;;;12.38;7.80;;;14.40;99.90;;;;;;5090092;28;20054;-62
2022/11/01 00:35:04;;;;;;;13.45;7.63;;;14.40;99.90;;;;;;5090255;28;20086;-62
2022/11/01 00:37:30;;;;;;;15.05;7.85;;;14.50;99.90;;;;;;5089674;28;20540;-62
2022/11/01 00:39:55;;;;;;;13.23;7.95;;;14.50;99.90;;;;;;5090384;28;20119;-63
2022/11/01 00:42:21;;;;;;;19.52;7.95;;;14.50;99.90;;;;;;5089964;28;20067;-62
2022/11/01 00:44:47;;;;;;;16.45;8.07;;;14.60;99.90;;;;;;5089972;28;20039;-64
2022/11/01 00:47:12;;;;;;;14.50;7.80;;;14.60;99.90;;;;;;5090054;28;20067;-63
2022/11/01 00:49:38;;;;;;;13.30;7.18;;;14.60;99.90;;;;;;5089806;28;20044;-62
2022/11/01 00:52:03;;;;;;;15.45;7.20;;;14.70;99.90;;;;;;5089786;28;20047;-62
2022/11/01 00:54:29;;;;;;;12.48;6.93;;;14.70;99.90;;;;;;5089027;28;20095;-62
2022/11/01 00:56:54;;;;;;;11.82;6.90;;;14.80;99.90;;;;;;5089756;28;20109;-62
2022/11/01 00:59:20;;;;;;;12.88;7.18;;;14.80;99.90;;;;;;5089317;28;20093;-62
2022/11/01 01:01:45;;;;;;;15.57;6.82;;;14.80;99.90;;;;;;5089251;28;20043;-62
2022/11/01 01:04:11;;;;;;;13.43;6.30;;;15.00;99.90;;;;;;5089962;28;20290;-62
2022/11/01 01:06:37;;;;;;;11.55;6.68;;;14.90;99.90;;;;;;5089650;28;20449;-63
2022/11/01 01:09:03;;;;;;;13.50;7.28;;;14.90;99.90;;;;;;5089803;28;20105;-62
2022/11/01 01:11:29;;;;;;;12.50;6.70;;;14.90;99.90;;;;;;5089389;28;20120;-63
2022/11/01 01:13:54;;;;;;;13.93;6.82;;;14.90;99.90;;;;;;5089875;28;20040;-62
2022/11/01 01:16:21;;;;;;;13.27;7.10;;;14.90;99.90;;;;;;5089588;28;20107;-63
2022/11/01 01:18:46;;;;;;;12.73;7.05;;;14.90;99.90;;;;;;5089549;28;20035;-62
2022/11/01 01:21:12;;;;;;;15.32;6.45;;;14.90;99.90;;;;;;5089283;28;20461;-62
2022/11/01 01:23:38;;;;;;;12.00;7.10;;;14.90;99.90;;;;;;5089280;28;20032;-62
2022/11/01 01:26:08;;;;;;;9.98;6.20;;;14.90;99.90;;;;;;5089669;28;20043;-62
2022/11/01 01:28:34;;;;;;;12.07;6.65;;;14.90;99.90;;;;;;5091126;28;20036;-63
2022/11/01 01:31:08;;;;;;;12.55;6.57;;;15.00;99.90;;;;;;5093837;28;20067;-62
2022/11/01 01:33:33;;;;;;;13.77;6.57;;;14.90;99.90;;;;;;5093451;28;20385;-62
2022/11/01 01:36:03;;;;;;;14.35;6.57;;;15.00;99.90;;;;;;5092788;28;20043;-62
2022/11/01 01:38:29;;;;;;;13.70;6.63;;;15.00;99.90;;;;;;5092984;28;20100;-63
2022/11/01 01:41:54;;;;;;;13.50;6.28;;;15.00;99.90;;;;;;5092646;28;20379;-62
2022/11/01 01:43:42;;;;;;;14.65;6.38;;;15.00;99.90;;;;;;5092006;28;20484;-62
2022/11/01 01:46:09;;;;;;;13.18;5.78;;;15.00;99.90;;;;;;5092187;28;20039;-62
2022/11/01 01:48:37;;;;;;;14.02;6.47;;;15.00;99.90;;;;;;5093160;28;20429;-63
2022/11/01 01:51:06;;;;;;;12.48;6.18;;;15.00;99.90;;;;;;5092209;28;20039;-62
2022/11/01 01:53:36;;;;;;;12.35;6.03;;;15.00;99.90;;;;;;5089597;28;20060;-63
2022/11/01 01:56:10;;;;;;;16.05;6.40;;;15.00;99.90;;;;;;5091358;28;20118;-63
2022/11/01 01:58:41;;;;;;;13.40;6.50;;;15.00;99.90;;;;;;5091922;28;20326;-62
2022/11/01 02:01:07;;;;;;;12.02;6.40;;;15.00;99.90;;;;;;5092077;28;20063;-63
2022/11/01 02:03:35;;;;;;;12.75;6.32;;;15.00;99.90;;;;;;5090836;28;20047;-62
2022/11/01 02:06:13;;;;;;;11.73;6.28;;;15.00;99.90;;;;;;5092391;28;20036;-62
2022/11/01 02:08:43;;;;;;;14.85;6.40;;;15.00;99.90;;;;;;5092001;28;20032;-63
2022/11/01 02:11:10;;;;;;;11.57;6.47;;;15.00;99.90;;;;;;5092408;28;20165;-62
2022/11/01 02:13:36;;;;;;;9.52;5.93;;;15.10;99.90;;;;;;5092700;28;20386;-62
2022/11/01 02:16:13;;;;;;;13.80;6.35;;;15.10;99.90;;;;;;5092825;28;20055;-62
2022/11/01 02:18:47;;;;;;;11.73;5.75;;;15.10;99.90;;;;;;5092907;28;20106;-63
2022/11/01 02:21:33;;;;;;;13.55;6.70;;;15.10;99.90;;;;;;5091893;28;20032;-62
2022/11/01 02:24:29;;;;;;;12.48;6.57;;;15.00;99.90;;;;;;5091735;28;20039;-63
2022/11/01 02:27:18;;;;;;;13.95;6.55;;;15.00;99.90;;;;;;5092452;28;20032;-63
2022/11/01 02:30:06;;;;;;;13.50;6.80;;;14.90;99.90;;;;;;5092922;28;20036;-63
2022/11/01 02:32:47;;;;;;;15.85;7.07;;;14.90;99.90;;;;;;5091500;28;20044;-63
2022/11/01 02:35:22;;;;;;;12.82;7.32;;;14.90;99.90;;;;;;5092647;28;20048;-63
2022/11/01 02:37:51;;;;;;;15.18;6.72;;;14.90;99.90;;;;;;5092438;28;20090;-63
2022/11/01 02:40:27;;;;;;;14.40;6.53;;;14.90;99.90;;;;;;5091033;28;20036;-62
2022/11/01 02:42:59;;;;;;;12.45;6.43;;;15.00;99.90;;;;;;5092661;28;20044;-62
2022/11/01 02:45:27;;;;;;;13.93;6.13;;;15.00;99.90;;;;;;5091223;28;20040;-63
2022/11/01 02:48:01;;;;;;;15.27;6.60;;;15.00;99.90;;;;;;5091757;28;20052;-62
2022/11/01 02:50:37;;;;;;;10.35;6.20;;;15.00;99.90;;;;;;5091708;28;20032;-63
2022/11/01 02:53:03;;;;;;;12.25;5.75;;;15.10;99.90;;;;;;5092390;28;20080;-63
2022/11/01 02:55:29;;;;;;;10.57;5.68;;;15.20;99.90;;;;;;5091909;28;20068;-62
2022/11/01 02:58:00;;;;;;;11.23;5.85;;;15.20;99.90;;;;;;5091797;28;20059;-63
2022/11/01 03:00:32;;;;;;;9.73;6.00;;;15.20;99.90;;;;;;5091339;28;20044;-62
2022/11/01 03:03:04;;;;;;;11.88;5.53;;;15.30;99.90;;;;;;5092070;28;20131;-63
2022/11/01 03:05:57;;;;;;;9.07;5.85;;;15.30;99.90;;;;;;5081065;28;20094;-61
2022/11/01 03:08:28;;;;;;;12.38;5.68;;;15.40;99.90;;;;;;5091768;28;20032;-62
2022/11/01 03:11:16;;;;;;;12.38;6.18;;;15.50;99.90;;;;;;5092041;28;20036;-62
2022/11/01 03:13:55;;;;;;;11.05;6.00;;;15.50;99.90;;;;;;5092079;28;20081;-62
2022/11/01 03:16:29;;;;;;;10.95;5.38;;;15.50;99.90;;;;;;5091382;28;20395;-62
2022/11/01 03:19:19;;;;;;;10.85;5.60;;;15.50;99.90;;;;;;5091921;28;20302;-63
2022/11/01 03:21:58;;;;;;;10.82;5.72;;;15.50;99.90;;;;;;5091409;28;20058;-62
2022/11/01 03:25:02;;;;;;;13.48;5.63;;;15.40;99.90;;;;;;5091621;28;20056;-63
2022/11/01 03:27:39;;;;;;;12.13;6.43;;;15.40;99.90;;;;;;5091450;28;20369;-63
2022/11/01 03:30:08;;;;;;;12.80;5.78;;;15.40;99.90;;;;;;5091832;28;20040;-62
2022/11/01 03:32:41;;;;;;;10.85;5.97;;;15.40;99.90;;;;;;5089506;28;20469;-62
2022/11/01 03:35:10;;;;;;;13.25;6.78;;;15.50;99.90;;;;;;5090959;28;20050;-62
2022/11/01 03:37:40;;;;;;;11.27;5.75;;;15.50;99.90;;;;;;5091110;28;20040;-63
2022/11/01 03:40:08;;;;;;;9.57;5.68;;;15.50;99.90;;;;;;5091361;28;20040;-62
2022/11/01 03:42:35;;;;;;;12.75;6.13;;;15.60;99.90;;;;;;5091324;28;20069;-63
2022/11/01 03:45:08;;;;;;;10.85;5.05;;;15.60;99.90;;;;;;5077014;28;20054;-62
2022/11/01 03:47:33;;;;;;;11.77;5.40;;;15.60;99.90;;;;;;5091442;28;20161;-62
2022/11/01 03:50:17;;;;;;;9.20;5.38;;;15.60;99.90;;;;;;5091239;28;20036;-63
2022/11/01 03:52:43;;;;;;;10.15;6.03;;;15.60;99.90;;;;;;5090944;28;20115;-63
2022/11/01 03:55:18;;;;;;;11.43;5.47;;;15.70;99.90;;;;;;5090379;28;20028;-63
2022/11/01 03:57:48;;;;;;;11.68;5.28;;;15.60;99.90;;;;;;5091169;28;20107;-62
2022/11/01 04:00:16;;;;;;;11.85;5.43;;;15.60;99.90;;;;;;5090222;28;20044;-63
2022/11/01 04:02:42;;;;;;;11.88;5.70;;;15.60;99.90;;;;;;5090673;28;20028;-62
2022/11/01 04:05:10;;;;;;;11.38;5.47;;;15.60;99.90;;;;;;5090413;28;20455;-62
2022/11/01 04:07:36;;;;;;;11.23;5.25;;;15.60;99.90;;;;;;5090667;28;20122;-62
2022/11/01 04:10:02;;;;;;;9.85;5.35;;;15.70;99.90;;;;;;5090120;28;20127;-62
2022/11/01 04:12:27;;;;;;;12.10;5.55;;;15.50;99.90;;;;;;5090678;28;20040;-63
2022/11/01 04:20:34;;;;;;;8.90;5.90;;;15.60;99.90;;;;;;5090377;28;20156;-62
2022/11/01 04:23:04;;;;;;;9.15;5.55;;;15.50;99.90;;;;;;5090848;28;20039;-62
2022/11/01 04:25:31;;;;;;;11.18;5.60;;;15.50;99.90;;;;;;5090272;28;20470;-62
2022/11/01 04:27:57;;;;;;;9.20;5.68;;;15.50;99.90;;;;;;5090208;28;20044;-62
2022/11/01 04:30:24;;;;;;;12.63;5.45;;;15.50;99.90;;;;;;5090182;28;20068;-62
2022/11/01 04:32:50;;;;;;;11.65;5.80;;;15.50;99.90;;;;;;5090610;28;20136;-63
2022/11/01 04:35:15;;;;;;;11.77;5.60;;;15.50;99.90;;;;;;5090293;28;20482;-62
2022/11/01 04:37:41;;;;;;;11.88;5.72;;;15.50;99.90;;;;;;5090249;28;20032;-63
2022/11/01 04:40:08;;;;;;;9.05;5.60;;;15.50;99.90;;;;;;5090271;28;20166;-63
2022/11/01 04:42:37;;;;;;;12.50;5.68;;;15.60;99.90;;;;;;5090647;28;20043;-63
2022/11/01 04:45:07;;;;;;;12.90;5.50;;;15.60;99.90;;;;;;5076419;28;20135;-62
2022/11/01 04:47:32;;;;;;;9.48;5.10;;;15.60;99.90;;;;;;5090444;28;20035;-62
2022/11/01 04:49:58;;;;;;;9.32;5.25;;;15.60;99.90;;;;;;5089902;28;20500;-63
2022/11/01 04:52:24;;;;;;;10.82;5.63;;;15.60;99.90;;;;;;5078956;28;20048;-64
2022/11/01 04:54:49;;;;;;;9.07;5.07;;;15.70;99.90;;;;;;5086050;28;20032;-63
2022/11/01 04:57:24;;;;;;;10.23;5.43;;;15.70;99.90;;;;;;5089512;28;20062;-62
2022/11/01 04:59:54;;;;;;;8.25;4.70;;;15.70;99.90;;;;;;5089175;28;20177;-63
2022/11/01 05:02:22;;;;;;;10.02;5.45;;;15.70;99.90;;;;;;5088893;28;20058;-62
2022/11/01 05:04:48;;;;;;;10.18;5.10;;;15.70;99.90;;;;;;5089134;28;20064;-62
2022/11/01 05:07:14;;;;;;;10.18;5.88;;;15.70;99.90;;;;;;5089685;28;20453;-63
2022/11/01 05:09:41;;;;;;;10.98;5.32;;;15.70;99.90;;;;;;5089591;28;20032;-62
2022/11/01 05:12:08;;;;;;;10.25;5.00;;;15.60;99.90;;;;;;5089446;28;20495;-62
2022/11/01 05:14:33;;;;;;;7.82;4.28;;;15.60;99.90;;;;;;5089594;28;20272;-63
2022/11/01 05:16:59;;;;;;;7.13;3.78;;;15.60;99.90;;;;;;5090172;28;20409;-62
2022/11/01 05:19:25;;;;;;;9.65;2.85;;;15.70;99.90;;;;;;5089928;28;20114;-62
2022/11/01 05:21:51;;;;;;;5.90;2.40;;;15.60;99.90;;;;;;5089429;28;20484;-62
2022/11/01 05:24:17;;;;;;;5.82;2.10;;;15.60;99.90;;;;;;5089321;28;20036;-62
2022/11/01 05:26:43;;;;;;;4.53;1.85;;;15.60;99.90;;;;;;5089294;28;20465;-62
2022/11/01 05:29:09;;;;;;;6.55;1.92;;;15.50;99.90;;;;;;5087677;28;20668;-63
2022/11/01 05:31:35;;;;;;;5.20;1.80;;;15.40;99.90;;;;;;5080924;28;20083;-63
2022/11/01 05:34:01;;;;;;;3.38;1.40;;;15.20;99.90;;;;;;5089767;28;20039;-63
2022/11/01 05:36:26;;;;;;;5.82;1.50;;;15.10;99.90;;;;;;5088399;28;20059;-62
2022/11/01 05:38:56;;;;;;;4.82;2.03;;;15.10;99.90;;;;;;5089561;28;20132;-62
2022/11/01 05:41:22;;;;;;;5.80;1.83;;;15.00;99.90;;;;;;5083661;28;20092;-62
2022/11/01 05:43:48;;;;;;;2.83;1.45;;;14.90;99.90;;;;;;5079434;28;20036;-63
2022/11/01 05:46:13;;;;;;;4.22;1.40;;;14.90;99.90;;;;;;5087465;28;20044;-62
2022/11/01 05:48:40;;;;;;;6.50;1.77;;;14.80;99.90;;;;;;5085695;28;20043;-62
2022/11/01 05:51:07;;;;;;;8.05;1.48;;;14.80;99.90;;;;;;5088071;28;20039;-63
2022/11/01 05:53:32;;;;;;;6.28;1.40;;;14.70;99.90;;;;;;5089306;28;20047;-62
2022/11/01 05:55:58;;;;;;;2.90;1.10;;;14.70;99.90;;;;;;5087998;28;20044;-63
2022/11/01 05:58:24;;;;;;;5.20;1.30;;;14.70;99.90;;;;;;5088058;28;20067;-60
2022/11/01 06:00:55;;;;;;;5.05;1.05;;;14.70;99.90;;;;;;5087784;28;20499;-62
2022/11/01 06:03:21;;;;;;;2.17;1.10;;;14.60;99.90;;;;;;5089427;28;20036;-63
2022/11/01 06:05:47;;;;;;;3.60;1.10;;;14.60;99.90;;;;;;5089036;28;20091;-63
2022/11/01 06:08:12;;;;;;;4.40;1.15;;;14.50;99.90;;;;;;5089149;28;20141;-64
2022/11/01 06:10:38;;;;;;;4.05;1.35;;;14.50;99.90;;;;;;5088917;28;20131;-63
2022/11/01 06:13:04;;;;;;;3.03;1.15;;;14.40;99.90;;;;;;5088899;28;20115;-63
2022/11/01 06:15:29;;;;;;;9.07;1.50;;;14.40;99.90;;;;;;5089971;28;20333;-63
2022/11/01 06:17:57;;;;;;;4.32;1.35;;;14.40;99.90;;;;;;5092470;28;20298;-63
2022/11/01 06:20:23;;;;;;;4.10;1.25;;;14.40;99.90;;;;;;5091951;28;20068;-63
2022/11/01 06:22:48;;;;;;;6.15;1.23;;;14.40;99.90;;;;;;5091779;28;20025;-64
2022/11/01 06:25:14;;;;;;;6.70;1.40;;;14.30;99.90;;;;;;5092845;28;20298;-63
2022/11/01 06:27:39;;;;;;;3.53;1.40;;;14.20;99.90;;;;;;5092299;28;20395;-63
2022/11/01 06:30:05;;;;;;;5.88;1.60;;;14.20;99.90;;;;;;5092258;28;20035;-62
2022/11/01 06:32:31;;;;;;;8.02;1.40;;;14.20;99.90;;;;;;5092614;28;20080;-64
2022/11/01 06:34:56;;;;;;;4.60;1.50;;;14.20;99.90;;;;;;5091598;28;20075;-63
2022/11/01 06:37:22;;;;;;;7.30;1.85;;;14.20;99.90;;;;;;5092717;28;20044;-62
2022/11/01 06:39:47;;;;;;;7.55;1.50;;;14.20;99.90;;;;;;5092434;28;20036;-63
2022/11/01 06:42:13;;;;;;;8.88;2.00;;;14.20;99.90;;;;;;5092647;28;20040;-63
2022/11/01 06:44:39;;;;;;;10.40;2.38;;;14.20;99.90;;;;;;5091742;28;20096;-63
2022/11/01 06:47:04;;;;;;;8.00;2.17;;;14.30;99.90;;;;;;5092636;28;20122;-63
2022/11/01 06:49:30;;;;;;;5.78;1.80;;;14.20;99.90;;;;;;5091065;28;20043;-63
2022/11/01 06:51:56;;;;;;;6.47;1.98;;;14.10;99.90;;;;;;5092078;28;20042;-64
2022/11/01 06:54:21;;;;;;;7.07;1.67;;;14.10;99.90;;;;;;5092469;28;20101;-63
2022/11/01 06:56:47;;;;;;;7.20;2.53;;;14.10;99.90;;;;;;5092280;28;20043;-63
2022/11/01 06:59:15;;;;;;;5.82;1.70;;;14.20;99.90;;;;;;5084835;28;20045;-64
2022/11/01 07:01:40;;;;;;;10.60;2.13;;;14.20;99.90;;;;;;5089116;28;20043;-64
2022/11/01 07:04:06;;;;;;;9.40;1.70;;;14.20;99.90;;;;;;5092406;28;20051;-63
2022/11/01 07:06:32;;;;;;;9.10;2.00;;;14.20;99.90;;;;;;5091874;28;20036;-64
2022/11/01 07:08:58;;;;;;;7.75;1.60;;;14.20;99.90;;;;;;5092180;28;20066;-63
2022/11/01 07:11:24;;;;;;;4.43;1.55;;;14.20;99.90;;;;;;5091833;28;20248;-63
2022/11/01 07:13:49;;;;;;;4.88;1.50;;;14.20;99.90;;;;;;5090835;28;20136;-63
2022/11/01 07:16:15;;;;;;;8.48;1.60;;;14.30;99.90;;;;;;5091966;28;20120;-63
2022/11/01 07:18:40;;;;;;;6.80;1.73;;;14.30;99.90;;;;;;5091618;28;20092;-63
2022/11/01 07:21:06;;;;;;;3.88;1.30;;;14.30;99.90;;;;;;5091836;28;20044;-64
2022/11/01 07:23:32;;;;;;;8.23;1.63;;;14.40;99.90;;;;;;5073616;28;20043;-64
2022/11/01 07:25:57;;;;;;;6.40;1.58;;;14.30;99.90;;;;;;5090903;28;20444;-63
2022/11/01 07:28:23;;;;;;;6.20;1.60;;;14.40;99.90;;;;;;5092103;28;20130;-63
2022/11/01 07:30:50;;;;;;;5.78;1.50;;;14.50;99.90;;;;;;5091502;28;20043;-63
2022/11/01 07:33:16;;;;;;;7.65;2.22;;;14.50;99.90;;;;;;5091847;28;20131;-63
2022/11/01 07:35:42;;;;;;;5.45;1.67;;;14.50;99.90;;;;;;5091437;28;20505;-63
2022/11/01 07:38:08;;;;;;;4.95;2.28;;;14.40;99.90;;;;;;5091055;28;20373;-62
2022/11/01 07:40:34;;;;;;;8.18;1.85;;;14.50;99.90;;;;;;5091336;28;20052;-64
2022/11/01 07:43:01;;;;;;;8.93;2.00;;;14.50;99.90;;;;;;5091669;28;20105;-63
2022/11/01 07:45:28;;;;;;;8.60;2.08;;;14.50;99.90;;;;;;5090879;28;20047;-64
2022/11/01 07:48:01;;;;;;;9.65;2.13;;;14.50;99.90;;;;;;5090454;28;20101;-66
2022/11/01 07:50:31;;;;;;;9.38;2.50;;;14.50;99.90;;;;;;5090710;28;20036;-63
2022/11/01 07:53:10;;;;;;;11.40;2.65;;;14.60;99.90;;;;;;5090985;28;20464;-63
2022/11/01 07:55:36;;;;;;;10.88;2.55;;;14.80;99.90;;;;;;5091251;28;20119;-63
2022/11/01 07:58:02;;;;;;;12.13;2.78;;;14.80;99.90;;;;;;5091122;28;20059;-63
2022/11/01 08:00:28;;;;;;;12.43;2.72;;;14.90;99.90;;;;;;5090251;28;20774;-63
2022/11/01 08:03:12;;;;;;;14.70;3.30;;;14.90;99.90;;;;;;5091038;28;20060;-63
2022/11/01 08:05:38;;;;;;;11.60;2.60;;;14.90;99.90;;;;;;5079220;28;20038;-63
2022/11/01 08:08:05;;;;;;;11.95;2.70;;;15.00;99.90;;;;;;5091010;28;20127;-64
2022/11/01 08:10:31;;;;;;;12.95;3.13;;;15.10;99.90;;;;;;5076331;28;20050;-63
2022/11/01 08:13:23;;;;;;;14.07;2.92;;;15.10;99.90;;;;;;5090821;28;20048;-64
2022/11/01 08:15:50;;;;;;;15.93;3.15;;;15.10;99.90;;;;;;5087623;28;20044;-64
2022/11/01 08:18:17;;;;;;;16.77;3.40;;;15.10;99.90;;;;;;5090832;28;20028;-63
2022/11/01 08:20:43;;;;;;;12.45;3.00;;;15.00;99.90;;;;;;5090636;28;20082;-63
2022/11/01 08:23:10;;;;;;;15.52;3.30;;;15.00;99.90;;;;;;5090756;28;20036;-63
2022/11/01 08:25:36;;;;;;;14.57;2.90;;;15.20;99.90;;;;;;5090807;28;20133;-64
2022/11/01 08:28:07;;;;;;;10.10;2.42;;;15.30;99.90;;;;;;5089829;28;20055;-64
2022/11/01 08:30:33;;;;;;;12.25;3.00;;;15.30;99.90;;;;;;5090480;28;20044;-64
2022/11/01 08:33:02;;;;;;;16.58;3.40;;;15.20;99.90;;;;;;5090689;28;20044;-64
2022/11/01 08:35:29;;;;;;;10.98;3.20;;;15.20;99.90;;;;;;5090284;28;20735;-64
2022/11/01 08:37:55;;;;;;;14.38;3.22;;;15.20;99.90;;;;;;5089681;28;20098;-64
2022/11/01 08:40:21;;;;;;;11.05;2.97;;;15.10;99.90;;;;;;5090109;28;20050;-63
2022/11/01 08:42:47;;;;;;;10.35;3.10;;;15.10;99.90;;;;;;5090311;28;20115;-64
2022/11/01 08:45:14;;;;;;;16.38;3.15;;;15.10;99.90;;;;;;5090335;28;20082;-63
2022/11/01 08:47:40;;;;;;;17.10;3.88;;;15.10;99.90;;;;;;5090144;28;20036;-64
2022/11/01 08:50:07;;;;;;;16.30;3.42;;;15.10;99.90;;;;;;5088675;28;20044;-63
2022/11/01 08:52:33;;;;;;;11.80;2.65;;;15.20;99.90;;;;;;5090234;28;20050;-64
2022/11/01 08:54:59;;;;;;;13.98;3.17;;;15.20;99.90;;;;;;5090109;28;20040;-63
2022/11/01 08:57:24;;;;;;;13.65;3.55;;;15.20;99.90;;;;;;5090373;28;20044;-63
2022/11/01 08:59:50;;;;;;;9.82;2.95;;;15.30;99.90;;;;;;5089132;28;20067;-63
2022/11/01 09:02:15;;;;;;;13.50;3.03;;;15.30;99.90;;;;;;5090250;28;20075;-64
2022/11/01 09:04:41;;;;;;;12.57;2.95;;;15.20;99.90;;;;;;5090025;28;20097;-63
2022/11/01 09:07:07;;;;;;;12.65;3.03;;;15.20;99.90;;;;;;5089724;28;20123;-63
2022/11/01 09:09:32;;;;;;;12.15;3.20;;;15.30;99.90;;;;;;5089454;28;20067;-63
2022/11/01 09:11:58;;;;;;;13.55;3.10;;;15.30;99.90;;;;;;5090098;28;20137;-64
2022/11/01 09:14:25;;;;;;;12.05;3.03;;;15.30;99.90;;;;;;5090043;28;20063;-63
2022/11/01 09:16:50;;;;;;;13.25;3.30;;;15.30;99.90;;;;;;5089338;28;20489;-63
2022/11/01 09:19:16;;;;;;;13.70;3.00;;;15.30;99.90;;;;;;5090115;28;20074;-63
2022/11/01 09:21:43;;;;;;;14.48;3.47;;;15.40;99.90;;;;;;5089557;28;20214;-63
2022/11/01 09:24:11;;;;;;;9.63;2.72;;;15.50;99.90;;;;;;5089616;28;20514;-63
2022/11/01 09:26:37;;;;;;;16.15;3.10;;;15.50;99.90;;;;;;5088470;28;20043;-63
2022/11/01 09:29:03;;;;;;;10.15;3.10;;;15.60;99.90;;;;;;5089564;28;20517;-64
2022/11/01 09:31:28;;;;;;;14.80;3.53;;;15.50;99.90;;;;;;5089622;28;20154;-63
2022/11/01 09:33:57;;;;;;;12.98;2.97;;;15.60;99.90;;;;;;5088509;28;20044;-63
2022/11/01 09:36:24;;;;;;;14.57;3.55;;;15.50;99.90;;;;;;5089678;28;20063;-62
2022/11/01 09:38:50;;;;;;;12.10;3.50;;;15.60;99.90;;;;;;5089438;28;20376;-63
2022/11/01 09:41:25;;;;;;;19.45;3.28;;;15.60;99.90;;;;;;5089361;28;20110;-63
2022/11/01 09:43:52;;;;;;;14.60;3.65;;;15.70;99.90;;;;;;5089456;28;20449;-63
2022/11/01 09:46:21;;;;;;;12.77;3.22;;;15.70;99.90;;;;;;5089378;28;20078;-63
2022/11/01 09:48:48;;;;;;;15.13;3.85;;;15.70;99.90;;;;;;5089450;28;20040;-64
2022/11/01 09:51:20;;;;;;;14.57;3.70;;;15.80;99.90;;;;;;5093175;28;20063;-63
2022/11/01 09:53:49;;;;;;;17.42;4.18;;;15.80;99.90;;;;;;5093399;28;20097;-63
2022/11/01 09:56:41;;;;;;;16.27;3.50;;;15.80;99.90;;;;;;5093292;28;20043;-64
2022/11/01 09:59:30;;;;;;;13.70;3.22;;;15.80;99.90;;;;;;5092714;28;20495;-63
2022/11/01 10:01:56;;;;;;;13.55;2.85;;;15.70;99.90;;;;;;5092957;28;20040;-63
2022/11/01 10:04:54;;;;;;;15.88;2.97;;;15.80;99.90;;;;;;5092758;28;20047;-64
2022/11/01 10:07:32;;;;;;;11.73;2.78;;;15.80;99.90;;;;;;5093307;28;20124;-64
2022/11/01 10:10:21;;;;;;;12.82;2.80;;;15.80;99.90;;;;;;5093028;28;20040;-63
2022/11/01 10:13:01;;;;;;;14.65;3.88;;;15.90;99.90;;;;;;5089202;28;20109;-64
2022/11/01 10:15:48;;;;;;;15.80;3.38;;;16.00;99.90;;;;;;5092951;28;20131;-63
2022/11/01 10:18:27;;;;;;;10.05;3.10;;;15.90;99.90;;;;;;5093139;28;20046;-63
2022/11/01 10:20:55;;;;;;;16.52;4.53;;;16.00;99.90;;;;;;5079900;28;20044;-64
2022/11/01 10:23:31;;;;;;;14.70;3.78;;;16.10;99.90;;;;;;5092889;28;20090;-63
2022/11/01 10:25:57;;;;;;;13.18;3.38;;;16.00;99.90;;;;;;5092715;28;20068;-63
2022/11/01 10:28:38;;;;;;;14.10;3.38;;;16.00;99.90;;;;;;5093370;28;20070;-64
2022/11/01 10:31:10;;;;;;;13.98;3.17;;;16.00;99.90;;;;;;5079751;28;20040;-63
2022/11/01 10:33:58;;;;;;;13.02;2.83;;;15.90;99.90;;;;;;5093186;28;20071;-64
2022/11/01 10:36:45;;;;;;;15.80;3.22;;;15.90;99.90;;;;;;5086421;28;20044;-63
2022/11/01 10:39:37;;;;;;;12.88;3.47;;;15.90;99.90;;;;;;5092796;28;20477;-63
2022/11/01 10:42:08;;;;;;;10.60;3.15;;;15.90;99.90;;;;;;5091499;28;20044;-63
2022/11/01 10:44:42;;;;;;;14.95;3.13;;;16.00;99.90;;;;;;5092974;28;20043;-63
2022/11/01 10:47:15;;;;;;;13.60;3.42;;;16.00;99.90;;;;;;5092773;28;20097;-64
2022/11/01 10:50:00;;;;;;;15.10;3.40;;;16.00;99.90;;;;;;5091061;28;20143;-63
2022/11/01 10:52:31;;;;;;;13.82;3.17;;;16.10;99.90;;;;;;5092555;28;20048;-63
2022/11/01 10:54:59;;;;;;;13.05;3.08;;;16.00;99.90;;;;;;5092437;28;20115;-63
2022/11/01 10:57:36;;;;;;;14.77;3.17;;;16.00;99.90;;;;;;5092756;28;20052;-63
2022/11/01 11:00:05;;;;;;;14.57;3.05;;;16.00;99.90;;;;;;5091884;28;20059;-64
2022/11/01 11:02:37;;;;;;;15.70;3.78;;;16.00;99.90;;;;;;5091300;28;20063;-62
2022/11/01 11:05:03;;;;;;;10.93;2.55;;;16.00;99.90;;;;;;5084339;28;20032;-63
2022/11/01 11:07:30;;;;;;;14.18;2.90;;;16.00;99.90;;;;;;5090738;28;20065;-63
2022/11/01 11:09:56;;;;;;;12.57;2.60;;;16.00;99.90;;;;;;5091624;28;20091;-63
2022/11/01 11:12:23;;;;;;;16.15;3.40;;;16.00;99.90;;;;;;5090740;28;20488;-63
2022/11/01 11:14:54;;;;;;;15.15;3.10;;;16.10;99.90;;;;;;5090585;28;20120;-62
2022/11/01 11:17:33;;;;;;;16.17;3.50;;;16.10;99.90;;;;;;5077705;28;20452;-62
2022/11/01 11:20:07;;;;;;;13.98;2.92;;;16.10;99.90;;;;;;5091738;28;20481;-61
2022/11/01 11:22:39;;;;;;;12.00;2.95;;;16.10;99.90;;;;;;5078699;28;20047;-63
2022/11/01 11:25:12;;;;;;;12.20;3.05;;;16.10;99.90;;;;;;5092148;28;20071;-62
2022/11/01 11:27:44;;;;;;;12.13;2.55;;;16.10;99.90;;;;;;5078626;28;20115;-62
2022/11/01 11:30:12;;;;;;;10.43;2.97;;;16.20;99.90;;;;;;5091688;28;20036;-63
2022/11/01 11:32:47;;;;;;;13.52;3.00;;;16.20;99.90;;;;;;5091967;28;20120;-64
2022/11/01 11:35:12;;;;;;;11.90;2.85;;;16.20;99.90;;;;;;5091744;28;20036;-64
2022/11/01 11:37:39;;;;;;;11.23;2.83;;;16.20;99.90;;;;;;5091332;28;20044;-63
2022/11/01 11:40:24;;;;;;;12.27;3.20;;;16.30;99.90;;;;;;5089436;28;20123;-64
2022/11/01 11:43:13;;;;;;;12.85;2.88;;;16.30;99.90;;;;;;5089798;28;20048;-64
2022/11/01 11:45:39;;;;;;;9.32;2.63;;;16.30;99.90;;;;;;5090054;28;20048;-63
2022/11/01 11:48:20;;;;;;;10.48;2.40;;;16.40;99.90;;;;;;5091340;28;20047;-63
2022/11/01 11:50:46;;;;;;;11.73;2.83;;;16.40;99.90;;;;;;5091349;28;20111;-64
2022/11/01 11:53:19;;;;;;;14.13;3.38;;;16.40;99.90;;;;;;5091024;28;20193;-63
2022/11/01 11:55:47;;;;;;;10.25;2.50;;;16.40;99.90;;;;;;5090860;28;20071;-63
2022/11/01 11:58:39;;;;;;;8.70;2.50;;;16.40;99.90;;;;;;5091261;28;20115;-64
2022/11/01 12:01:19;;;;;;;11.50;2.80;;;16.40;99.90;;;;;;5091056;28;20047;-64
2022/11/01 12:03:52;;;;;;;10.70;2.53;;;16.40;99.90;;;;;;5091382;28;20096;-63
2022/11/01 12:06:22;;;;;;;12.65;3.50;;;16.40;99.90;;;;;;5091077;28;20052;-63
2022/11/01 12:08:56;;;;;;;11.88;2.97;;;16.40;99.90;;;;;;5090865;28;20036;-63
2022/11/01 12:11:24;;;;;;;7.65;2.35;;;16.50;99.90;;;;;;5090794;28;20043;-63
2022/11/01 12:14:25;;;;;;;8.85;2.20;;;16.50;99.90;;;;;;5090840;28;20117;-63
2022/11/01 12:16:50;;;;;;;14.35;2.90;;;16.50;99.90;;;;;;5087169;28;20044;-63
2022/11/01 12:19:29;;;;;;;9.32;3.00;;;16.40;99.90;;;;;;5090485;28;20051;-63
2022/11/01 12:22:01;;;;;;;8.55;2.35;;;16.40;99.90;;;;;;5090851;28;20132;-64
2022/11/01 12:24:42;;;;;;;10.60;2.55;;;16.50;99.90;;;;;;5090711;28;20048;-63
2022/11/01 12:27:16;;;;;;;10.10;3.13;;;16.50;99.90;;;;;;5090492;28;20032;-63
2022/11/01 12:29:51;;;;;;;11.60;2.90;;;16.50;99.90;;;;;;5090555;28;20032;-63
2022/11/01 12:32:19;;;;;;;9.93;2.25;;;16.50;99.90;;;;;;5090640;28;20042;-62
2022/11/01 12:34:47;;;;;;;11.73;2.33;;;16.50;99.90;;;;;;5090604;28;20051;-62
2022/11/01 12:37:19;;;;;;;11.90;2.67;;;16.50;99.90;;;;;;5088927;28;20036;-62
2022/11/01 12:40:15;;;;;;;10.23;2.90;;;16.50;99.90;;;;;;5090168;28;20464;-63
2022/11/01 12:42:56;;;;;;;10.65;2.35;;;16.60;99.90;;;;;;5090524;28;20149;-63
2022/11/01 12:45:27;;;;;;;13.70;3.17;;;16.60;99.90;;;;;;5090310;28;20034;-62
2022/11/01 12:48:06;;;;;;;11.02;2.53;;;16.60;99.90;;;;;;5090420;28;20036;-62
2022/11/01 12:50:52;;;;;;;13.43;2.95;;;16.70;99.90;;;;;;5090070;28;20097;-62
2022/11/01 12:53:27;;;;;;;8.60;2.22;;;16.70;99.90;;;;;;5085835;28;20044;-62
2022/11/01 12:55:56;;;;;;;8.45;2.25;;;16.70;99.90;;;;;;5081619;28;20069;-62
2022/11/01 12:58:23;;;;;;;11.57;2.60;;;16.60;99.90;;;;;;5090388;28;20032;-62
2022/11/01 13:01:07;;;;;;;11.50;2.33;;;16.60;99.90;;;;;;5078314;28;20095;-64